Time;durP1;ratioP1;P1;durP2;ratioP2;P2;SDS_P1;SDS_P2;PMS_P1;PMS_P2;Temp;Humidity;BMP_temperature;BMP_pressure;BME280_temperature;BME280_humidity;BME280_pressure;Samples;Min_cycle;Max_cycle;Signal;HPM_P1;HPM_P2
2023/08/28 00:00:42;;;;;;;9.03;5.30;;;;;;;26.74;51.78;94517.53;5078015;28;20467;-83
2023/08/28 00:03:09;;;;;;;6.47;5.30;;;;;;;26.59;51.60;94512.63;5077778;28;20441;-83
2023/08/28 00:05:35;;;;;;;6.57;5.10;;;;;;;26.61;51.59;94518.63;5077696;28;20523;-83
2023/08/28 00:08:04;;;;;;;5.83;5.30;;;;;;;26.73;50.27;94521.28;5077469;28;20445;-83
2023/08/28 00:10:32;;;;;;;5.03;4.60;;;;;;;26.49;50.35;94507.06;5058606;28;20448;-83
2023/08/28 00:12:59;;;;;;;6.00;5.20;;;;;;;26.54;50.29;94510.66;5077530;28;20441;-81
2023/08/28 00:15:26;;;;;;;12.37;5.57;;;;;;;26.60;51.08;94508.06;5077226;28;20961;-83
2023/08/28 00:17:53;;;;;;;7.20;5.30;;;;;;;26.53;50.24;94505.50;5077530;28;20445;-83
2023/08/28 00:20:20;;;;;;;6.10;5.00;;;;;;;26.44;51.14;94505.06;5077957;28;20448;-82
2023/08/28 00:22:47;;;;;;;6.20;5.70;;;;;;;26.31;50.28;94502.63;5077310;28;20440;-82
2023/08/28 00:25:15;;;;;;;6.73;6.00;;;;;;;26.23;51.58;94503.78;5077040;28;20448;-81
2023/08/28 00:27:42;;;;;;;5.53;5.00;;;;;;;26.38;51.57;94502.53;5076494;28;20445;-82
2023/08/28 00:30:09;;;;;;;4.93;4.53;;;;;;;26.33;50.40;94503.22;5076185;28;20440;-82
2023/08/28 00:32:37;;;;;;;7.20;5.20;;;;;;;26.23;51.13;94497.59;5076491;28;20444;-82
2023/08/28 00:35:05;;;;;;;6.03;4.77;;;;;;;26.34;52.11;94501.38;5076375;28;20495;-82
2023/08/28 00:37:31;;;;;;;6.23;4.87;;;;;;;26.25;50.42;94498.16;5076435;28;20459;-82
2023/08/28 00:39:58;;;;;;;7.73;5.20;;;;;;;26.10;51.86;94495.97;5076011;28;20495;-83
2023/08/28 00:42:26;;;;;;;6.97;4.83;;;;;;;25.97;52.47;94514.22;5041010;28;20441;-82
2023/08/28 00:44:53;;;;;;;5.27;4.77;;;;;;;26.06;53.06;94516.34;5077543;28;20441;-82
2023/08/28 00:47:20;;;;;;;5.47;4.57;;;;;;;26.10;52.54;94512.13;5076513;28;20433;-82
2023/08/28 00:49:47;;;;;;;6.60;5.40;;;;;;;26.21;52.84;94516.66;5075831;28;20448;-82
2023/08/28 00:52:14;;;;;;;6.07;5.47;;;;;;;26.38;52.51;94519.47;5075846;28;20446;-82
2023/08/28 00:54:41;;;;;;;9.00;5.23;;;;;;;26.36;52.36;94526.16;5076093;28;20444;-82
2023/08/28 00:57:09;;;;;;;5.43;4.97;;;;;;;26.42;52.29;94526.03;5076200;28;20441;-81
2023/08/28 00:59:37;;;;;;;5.73;5.23;;;;;;;26.52;52.03;94518.16;5075587;28;20538;-82
2023/08/28 01:02:04;;;;;;;9.83;5.20;;;;;;;26.54;51.73;94516.03;5075958;28;20448;-82
2023/08/28 01:04:31;;;;;;;6.73;5.00;;;;;;;26.64;51.83;94510.06;5075807;28;20442;-83
2023/08/28 01:07:09;;;;;;;5.87;5.20;;;;;;;26.68;51.57;94511.22;5075852;28;20449;-82
2023/08/28 01:09:46;;;;;;;4.97;4.53;;;;;;;26.64;50.95;94511.94;5076220;28;20444;-82
2023/08/28 01:12:21;;;;;;;7.20;4.83;;;;;;;26.57;50.50;94495.91;5075815;28;20460;-82
2023/08/28 01:14:59;;;;;;;6.00;5.10;;;;;;;26.60;50.83;94497.28;5075645;28;20449;-82
2023/08/28 01:17:27;;;;;;;7.47;4.97;;;;;;;26.60;50.56;94497.28;5057649;28;20538;-82
2023/08/28 01:19:56;;;;;;;5.17;4.77;;;;;;;26.50;50.64;94496.03;5076038;28;20488;-82
2023/08/28 01:22:32;;;;;;;7.20;5.40;;;;;;;26.44;50.87;94502.38;5039627;28;20425;-82
2023/08/28 01:25:09;;;;;;;5.60;4.70;;;;;;;26.37;51.66;94507.09;5075306;28;20468;-81
2023/08/28 01:27:37;;;;;;;5.47;4.97;;;;;;;26.45;50.80;94503.19;5075059;28;20444;-82
2023/08/28 01:30:09;;;;;;;6.10;5.57;;;;;;;26.49;51.71;94496.28;5075296;28;20440;-82
2023/08/28 01:32:36;;;;;;;6.00;5.20;;;;;;;26.47;51.53;94503.78;5076039;28;20445;-82
2023/08/28 01:35:07;;;;;;;5.60;5.10;;;;;;;26.52;50.72;94503.88;5075688;28;20509;-82
2023/08/28 01:37:41;;;;;;;6.03;5.40;;;;;;;26.42;51.63;94492.91;5056555;28;20440;-82
2023/08/28 01:40:14;;;;;;;7.47;4.83;;;;;;;26.41;50.74;94496.66;5074654;28;21023;-81
2023/08/28 01:42:42;;;;;;;5.33;4.83;;;;;;;26.38;51.56;94497.16;5074652;28;20772;-82
2023/08/28 01:45:10;;;;;;;6.50;4.13;;;;;;;26.37;51.51;94501.72;5075401;28;20452;-81
2023/08/28 01:47:37;;;;;;;5.30;4.60;;;;;;;26.29;51.41;94502.03;5075073;28;20449;-82
2023/08/28 01:50:05;;;;;;;4.87;4.30;;;;;;;26.13;52.15;94492.81;5039818;28;20444;-81
2023/08/28 01:52:31;;;;;;;4.43;4.03;;;;;;;26.18;52.20;94502.88;5074519;28;20931;-82
2023/08/28 01:54:58;;;;;;;5.20;4.43;;;;;;;26.21;51.88;94494.31;5074462;28;20445;-81
2023/08/28 01:57:26;;;;;;;7.77;5.20;;;;;;;26.18;51.73;94486.72;5075119;28;20447;-80
2023/08/28 01:59:53;;;;;;;7.03;5.50;;;;;;;26.28;51.99;94492.31;5073862;28;20527;-81
2023/08/28 02:02:20;;;;;;;14.53;5.93;;;;;;;25.52;52.68;94487.88;5039278;28;20448;-81
2023/08/28 02:04:47;;;;;;;11.07;6.80;;;;;;;25.74;53.17;94486.31;5055760;28;20993;-82
2023/08/28 02:07:14;;;;;;;11.47;10.20;;;;;;;25.75;53.29;94492.50;5074454;28;20437;-82
2023/08/28 02:09:40;;;;;;;12.57;11.20;;;;;;;25.82;52.93;94494.00;5074381;28;20449;-81
2023/08/28 02:12:07;;;;;;;11.63;10.43;;;;;;;25.90;52.78;94482.06;5074730;28;20441;-81
2023/08/28 02:14:36;;;;;;;9.20;8.30;;;;;;;25.79;52.23;94481.03;5074664;28;20824;-81
2023/08/28 02:17:02;;;;;;;8.70;6.70;;;;;;;25.83;52.21;94468.75;5074756;28;20480;-82
2023/08/28 02:19:29;;;;;;;11.90;7.67;;;;;;;25.84;52.35;94473.09;5074693;28;20484;-81
2023/08/28 02:21:56;;;;;;;13.70;7.40;;;;;;;25.53;53.42;94473.41;5039453;28;20907;-80
2023/08/28 02:24:23;;;;;;;9.37;7.20;;;;;;;25.74;52.67;94472.84;5055837;28;20426;-81
2023/08/28 02:26:50;;;;;;;8.80;7.57;;;;;;;25.80;53.10;94471.91;5074868;28;20443;-81
2023/08/28 02:29:16;;;;;;;14.70;6.70;;;;;;;25.81;52.65;94465.50;5055860;28;20817;-82
2023/08/28 02:31:44;;;;;;;12.33;6.93;;;;;;;25.78;53.03;94467.84;5074868;28;20444;-81
2023/08/28 02:34:11;;;;;;;8.07;6.23;;;;;;;25.94;52.84;94473.31;5074567;28;20954;-82
2023/08/28 02:36:38;;;;;;;7.30;6.30;;;;;;;26.00;52.22;94468.84;5074651;28;20810;-80
2023/08/28 02:39:05;;;;;;;6.27;5.73;;;;;;;26.03;52.08;94471.09;5038960;28;20480;-82
2023/08/28 02:41:32;;;;;;;5.97;5.37;;;;;;;26.01;52.20;94466.97;5074449;28;20480;-82
2023/08/28 02:43:58;;;;;;;6.20;5.60;;;;;;;26.12;52.05;94458.91;5074728;28;20490;-82
2023/08/28 02:46:25;;;;;;;7.60;5.50;;;;;;;26.08;51.38;94465.81;5074207;28;20437;-82
2023/08/28 02:48:53;;;;;;;9.40;5.80;;;;;;;26.10;51.75;94447.56;5073786;28;20910;-82
2023/08/28 02:51:20;;;;;;;6.07;5.47;;;;;;;26.16;51.87;94452.00;5039529;28;20449;-82
2023/08/28 02:53:47;;;;;;;7.93;5.63;;;;;;;26.07;51.74;94453.44;5075163;28;20437;-83
2023/08/28 02:56:25;;;;;;;9.33;5.83;;;;;;;25.99;51.56;94453.75;5075254;28;20438;-83
2023/08/28 02:58:53;;;;;;;6.30;5.30;;;;;;;25.96;52.16;94446.19;5074157;28;20783;-83
2023/08/28 03:01:20;;;;;;;5.93;5.43;;;;;;;26.00;52.17;94451.91;5075411;28;20460;-82
2023/08/28 03:03:47;;;;;;;6.70;5.00;;;;;;;25.94;52.78;94454.47;5075078;28;20985;-83
2023/08/28 03:06:16;;;;;;;9.40;6.10;;;;;;;25.83;52.39;94451.81;5075284;28;20464;-82
2023/08/28 03:08:43;;;;;;;5.90;5.33;;;;;;;25.83;52.36;94458.00;5074683;28;20452;-83
2023/08/28 03:11:09;;;;;;;6.47;5.87;;;;;;;25.93;52.60;94460.91;5056676;28;20445;-83
2023/08/28 03:13:36;;;;;;;9.33;6.37;;;;;;;25.82;53.02;94456.38;5074881;28;20473;-83
2023/08/28 03:16:03;;;;;;;8.00;5.93;;;;;;;25.98;52.44;94457.50;5038532;28;20469;-82
2023/08/28 03:18:30;;;;;;;6.77;5.53;;;;;;;25.96;52.81;94458.81;5074380;28;20452;-83
2023/08/28 03:20:57;;;;;;;5.27;4.77;;;;;;;25.96;52.57;94459.63;5074258;28;20484;-82
2023/08/28 03:23:25;;;;;;;7.70;6.20;;;;;;;25.88;53.37;94460.00;5074432;28;20797;-81
2023/08/28 03:25:52;;;;;;;5.40;5.00;;;;;;;25.87;53.08;94461.03;5039386;28;20452;-83
2023/08/28 03:28:19;;;;;;;5.10;4.60;;;;;;;25.90;53.10;94465.94;5074799;28;20785;-83
2023/08/28 03:30:46;;;;;;;5.60;5.10;;;;;;;25.90;53.53;94468.63;5075021;28;20456;-83
2023/08/28 03:33:13;;;;;;;7.33;6.03;;;;;;;25.90;53.53;94463.25;5074034;28;21058;-82
2023/08/28 03:35:39;;;;;;;6.47;5.87;;;;;;;25.85;53.93;94469.34;5073822;28;20441;-83
2023/08/28 03:38:06;;;;;;;5.90;5.40;;;;;;;25.82;53.92;94472.50;5073800;28;20502;-83
2023/08/28 03:40:36;;;;;;;10.50;5.50;;;;;;;25.76;54.08;94470.75;5074312;28;20550;-82
2023/08/28 03:43:03;;;;;;;6.27;5.67;;;;;;;25.79;54.22;94469.47;5074043;28;20783;-82
2023/08/28 03:45:30;;;;;;;8.30;5.80;;;;;;;25.77;53.96;94469.69;5073870;28;20769;-83
2023/08/28 03:47:57;;;;;;;6.17;5.53;;;;;;;25.86;54.01;94470.16;5074250;28;20458;-82
2023/08/28 03:50:28;;;;;;;6.50;5.60;;;;;;;25.81;54.08;94465.50;5074189;28;20537;-83
2023/08/28 03:52:55;;;;;;;5.70;5.20;;;;;;;25.80;54.04;94460.34;5073749;28;20918;-82
2023/08/28 03:55:22;;;;;;;7.00;5.30;;;;;;;25.80;54.00;94463.03;5040531;28;20923;-83
2023/08/28 03:57:50;;;;;;;7.17;6.47;;;;;;;25.74;53.70;94462.09;5078406;28;20441;-83
2023/08/28 04:00:18;;;;;;;5.97;5.37;;;;;;;25.81;54.09;94470.88;5075374;28;20489;-83
2023/08/28 04:02:45;;;;;;;6.90;5.30;;;;;;;25.75;54.12;94455.69;5074473;28;20458;-82
2023/08/28 04:05:12;;;;;;;6.43;5.83;;;;;;;25.70;54.23;94460.09;5074351;28;20445;-83
2023/08/28 04:07:39;;;;;;;6.17;5.57;;;;;;;25.79;54.21;94456.03;5073988;28;20448;-83
2023/08/28 04:10:07;;;;;;;6.27;5.43;;;;;;;25.83;53.84;94458.00;5072918;28;20457;-83
2023/08/28 04:12:34;;;;;;;6.50;5.90;;;;;;;25.88;54.13;94452.75;5021795;28;20441;-82
2023/08/28 04:15:03;;;;;;;6.53;5.40;;;;;;;25.99;53.64;94450.25;5073392;28;20440;-82
2023/08/28 04:17:30;;;;;;;8.17;6.00;;;;;;;26.05;53.83;94455.53;5073412;28;20444;-83
2023/08/28 04:19:57;;;;;;;8.23;6.23;;;;;;;26.15;53.21;94449.53;5038208;28;20484;-82
2023/08/28 04:22:24;;;;;;;7.87;5.17;;;;;;;26.77;51.78;94466.69;5073272;28;20451;-83
2023/08/28 04:24:52;;;;;;;6.30;5.70;;;;;;;27.40;50.03;94460.28;5075814;28;20444;-82
2023/08/28 04:27:19;;;;;;;10.90;5.43;;;;;;;28.00;48.49;94462.31;5076319;28;20437;-83
2023/08/28 04:29:46;;;;;;;6.00;5.43;;;;;;;28.58;46.64;94470.94;5076183;28;20444;-84
2023/08/28 04:32:17;;;;;;;6.87;6.27;;;;;;;29.16;45.92;94469.41;5057564;28;20441;-83
2023/08/28 04:34:44;;;;;;;6.17;5.57;;;;;;;29.44;44.40;94471.88;5077021;28;20452;-83
2023/08/28 04:37:11;;;;;;;7.43;6.57;;;;;;;29.62;44.02;94467.97;5077477;28;20447;-81
2023/08/28 04:39:37;;;;;;;6.47;5.87;;;;;;;29.76;43.47;94465.63;5076486;28;20484;-82
2023/08/28 04:42:05;;;;;;;6.40;5.47;;;;;;;29.84;43.33;94471.41;5076255;28;20448;-83
2023/08/28 04:44:31;;;;;;;6.87;6.27;;;;;;;30.00;42.91;94469.59;5076338;28;20725;-83
2023/08/28 04:46:59;;;;;;;7.10;5.90;;;;;;;30.10;42.27;94468.91;5076091;28;20436;-81
2023/08/28 04:49:28;;;;;;;11.13;7.07;;;;;;;29.78;43.51;94466.19;5075872;28;20441;-82
2023/08/28 04:51:55;;;;;;;9.97;5.63;;;;;;;29.26;43.00;94480.34;5075487;28;20440;-81
2023/08/28 04:54:21;;;;;;;7.47;6.63;;;;;;;28.65;44.04;94485.06;5068474;28;20817;-81
2023/08/28 04:56:48;;;;;;;14.30;5.90;;;;;;;28.56;44.97;94481.97;5076262;28;20452;-82
2023/08/28 04:59:15;;;;;;;10.40;5.53;;;;;;;28.59;44.82;94486.88;5076087;28;20941;-82
2023/08/28 05:01:42;;;;;;;14.77;7.17;;;;;;;28.32;45.13;94489.50;5076267;28;20480;-82
2023/08/28 05:04:09;;;;;;;9.27;6.67;;;;;;;28.11;46.24;94484.06;5076537;28;20449;-82
2023/08/28 05:06:37;;;;;;;6.73;6.03;;;;;;;28.06;46.57;94487.50;5076095;28;20467;-82
2023/08/28 05:09:04;;;;;;;9.60;6.83;;;;;;;27.32;48.75;94479.56;5076692;28;20464;-82
2023/08/28 05:11:31;;;;;;;11.80;7.10;;;;;;;27.45;50.39;94481.13;5076024;28;20484;-82
2023/08/28 05:13:58;;;;;;;9.57;7.03;;;;;;;28.00;48.04;94481.19;5075520;28;20562;-82
2023/08/28 05:16:25;;;;;;;9.77;7.07;;;;;;;28.27;47.80;94483.22;5075685;28;20479;-80
2023/08/28 05:18:51;;;;;;;10.47;6.63;;;;;;;28.63;46.44;94469.13;5068093;28;20458;-78
2023/08/28 05:21:18;;;;;;;9.20;6.00;;;;;;;29.08;45.38;94468.00;5055281;28;20496;-79
2023/08/28 05:23:46;;;;;;;5.67;5.03;;;;;;;29.51;44.30;94461.69;5073208;28;20452;-80
2023/08/28 05:26:12;;;;;;;8.93;6.60;;;;;;;29.76;43.73;94462.94;5075585;28;20468;-79
2023/08/28 05:28:40;;;;;;;13.90;6.33;;;;;;;30.11;43.50;94455.09;5074657;28;20923;-79
2023/08/28 05:31:07;;;;;;;8.60;7.53;;;;;;;30.12;42.12;94466.75;5074913;28;20268;-79
2023/08/28 05:33:35;;;;;;;10.37;6.53;;;;;;;29.95;41.60;94468.75;5074110;28;20818;-79
2023/08/28 05:36:02;;;;;;;12.50;7.10;;;;;;;29.79;43.61;94463.25;5074464;28;20452;-78
2023/08/28 05:38:29;;;;;;;10.67;7.83;;;;;;;29.71;43.29;94476.41;5074751;28;20989;-81
2023/08/28 05:40:57;;;;;;;10.00;7.23;;;;;;;29.77;43.65;94469.97;5073612;28;20485;-81
2023/08/28 05:43:24;;;;;;;8.50;6.23;;;;;;;30.03;42.34;94474.50;5074178;28;20919;-81
2023/08/28 05:45:51;;;;;;;7.30;6.60;;;;;;;30.10;42.15;94468.91;5073394;28;20453;-80
2023/08/28 05:48:18;;;;;;;9.13;6.13;;;;;;;30.16;42.28;94463.25;5073706;28;20444;-79
2023/08/28 05:50:45;;;;;;;8.10;6.07;;;;;;;30.42;42.19;94453.34;5074165;28;20429;-80
2023/08/28 05:53:12;;;;;;;6.50;5.90;;;;;;;30.76;41.42;94455.69;5074073;28;20431;-80
2023/08/28 05:55:39;;;;;;;9.10;6.93;;;;;;;30.80;40.09;94451.34;5074842;28;20433;-80
2023/08/28 05:58:07;;;;;;;10.80;7.53;;;;;;;30.86;40.27;94454.88;5075007;28;20474;-79
2023/08/28 06:00:34;;;;;;;12.57;7.10;;;;;;;30.91;39.82;94450.28;5073857;28;20480;-82
2023/08/28 06:03:06;;;;;;;18.10;6.77;;;;;;;31.04;39.62;94451.69;5073595;28;20523;-80
2023/08/28 06:05:33;;;;;;;8.90;7.40;;;;;;;31.10;40.16;94450.63;5055347;28;21446;-80
2023/08/28 06:08:00;;;;;;;7.80;5.80;;;;;;;31.14;39.99;94443.56;5072109;28;20444;-79
2023/08/28 06:10:29;;;;;;;8.43;6.83;;;;;;;31.08;39.94;94448.19;5072723;28;20939;-80
2023/08/28 06:12:57;;;;;;;10.00;6.50;;;;;;;30.94;40.12;94455.22;5073521;28;20958;-80
2023/08/28 06:15:25;;;;;;;10.70;6.70;;;;;;;30.90;40.45;94448.66;5073070;28;20499;-80
2023/08/28 06:17:53;;;;;;;8.80;7.40;;;;;;;30.82;40.42;94454.63;5038477;28;20970;-79
2023/08/28 06:20:22;;;;;;;8.47;7.00;;;;;;;30.71;40.70;94453.78;5073427;28;20982;-80
2023/08/28 06:22:49;;;;;;;8.27;7.47;;;;;;;30.77;40.64;94460.84;5073449;28;20440;-80
2023/08/28 06:25:15;;;;;;;8.27;7.30;;;;;;;30.79;40.91;94468.69;5073246;28;20452;-81
2023/08/28 06:27:43;;;;;;;8.40;7.43;;;;;;;30.76;39.97;94467.34;5073637;28;20823;-81
2023/08/28 06:30:10;;;;;;;8.80;7.90;;;;;;;30.87;39.87;94472.78;5072942;28;20449;-80
2023/08/28 06:32:39;;;;;;;14.93;6.90;;;;;;;30.91;40.32;94469.25;5036168;28;20445;-81
2023/08/28 06:35:07;;;;;;;14.80;8.33;;;;;;;31.03;40.15;94471.75;5053925;28;20533;-80
2023/08/28 06:37:33;;;;;;;11.77;8.93;;;;;;;31.11;39.62;94473.94;5072936;28;20806;-80
2023/08/28 06:40:01;;;;;;;13.50;8.00;;;;;;;31.22;38.93;94458.50;5073057;28;20445;-81
2023/08/28 06:42:27;;;;;;;12.90;8.23;;;;;;;31.34;39.20;94462.63;5072877;28;20447;-81
2023/08/28 06:44:54;;;;;;;12.83;8.63;;;;;;;31.50;39.28;94466.13;5073071;28;20436;-81
2023/08/28 06:47:21;;;;;;;13.53;9.03;;;;;;;31.46;38.91;94458.81;5072718;28;20445;-79
2023/08/28 06:49:50;;;;;;;13.40;7.63;;;;;;;31.36;39.89;94462.34;5054057;28;20436;-80
2023/08/28 06:52:16;;;;;;;15.10;9.20;;;;;;;31.54;39.89;94459.13;5073074;28;20527;-80
2023/08/28 06:54:43;;;;;;;13.50;9.07;;;;;;;31.74;38.95;94467.25;5053824;28;20448;-80
2023/08/28 06:57:10;;;;;;;20.27;8.20;;;;;;;31.84;38.06;94461.03;5073004;28;20439;-80
2023/08/28 06:59:37;;;;;;;12.70;7.73;;;;;;;31.83;38.37;94459.41;5072679;28;20806;-80
2023/08/28 07:02:04;;;;;;;10.77;8.00;;;;;;;31.87;37.93;94459.66;5072757;28;20488;-80
2023/08/28 07:04:31;;;;;;;8.77;7.40;;;;;;;31.90;38.57;94459.94;5053867;28;20456;-80
2023/08/28 07:06:59;;;;;;;9.20;8.20;;;;;;;31.65;37.51;94459.91;5073162;28;20448;-80
2023/08/28 07:09:26;;;;;;;10.70;7.87;;;;;;;31.76;37.96;94464.28;5072661;28;20448;-80
2023/08/28 07:11:53;;;;;;;9.17;6.87;;;;;;;31.69;38.59;94461.00;5072424;28;20894;-79
2023/08/28 07:14:19;;;;;;;9.60;6.70;;;;;;;31.91;37.38;94456.13;5072195;28;20444;-80
2023/08/28 07:16:46;;;;;;;8.80;7.27;;;;;;;32.14;36.99;94456.63;5072400;28;20480;-80
2023/08/28 07:19:13;;;;;;;7.70;6.90;;;;;;;32.27;37.61;94443.31;5053774;28;20795;-82
2023/08/28 07:21:40;;;;;;;15.73;8.10;;;;;;;32.44;36.90;94464.72;5072741;28;21071;-80
2023/08/28 07:24:09;;;;;;;9.00;7.17;;;;;;;32.59;36.73;94467.38;5072932;28;20444;-81
2023/08/28 07:26:36;;;;;;;19.43;7.93;;;;;;;32.60;36.74;94468.19;5072958;28;20445;-79
2023/08/28 07:29:03;;;;;;;11.43;6.90;;;;;;;32.41;36.16;94473.44;5073413;28;20517;-79
2023/08/28 07:31:30;;;;;;;6.50;5.80;;;;;;;32.18;37.85;94465.84;5072598;28;20471;-80
2023/08/28 07:33:56;;;;;;;9.90;6.40;;;;;;;32.27;37.13;94461.50;5053855;28;20784;-81
2023/08/28 07:36:24;;;;;;;11.53;7.00;;;;;;;32.44;37.49;94472.88;5072420;28;20445;-80
2023/08/28 07:38:51;;;;;;;10.10;6.63;;;;;;;32.56;38.07;94462.50;5072782;28;20786;-79
2023/08/28 07:41:20;;;;;;;10.30;7.40;;;;;;;32.70;36.67;94460.03;5072873;28;20492;-80
2023/08/28 07:43:47;;;;;;;8.20;7.37;;;;;;;32.77;37.00;94462.44;5037316;28;20448;-80
2023/08/28 07:46:14;;;;;;;8.90;7.27;;;;;;;32.27;38.15;94464.22;5072213;28;20438;-80
2023/08/28 07:48:41;;;;;;;11.97;7.10;;;;;;;31.76;39.02;94458.03;5072372;28;20440;-81
2023/08/28 07:51:08;;;;;;;12.37;7.23;;;;;;;32.11;38.14;94457.19;5071721;28;20441;-81
2023/08/28 07:53:34;;;;;;;8.53;7.33;;;;;;;32.34;37.41;94459.31;5072465;28;20440;-82
2023/08/28 07:56:02;;;;;;;9.40;6.90;;;;;;;32.39;37.73;94456.59;5073140;28;20473;-81
2023/08/28 07:58:30;;;;;;;7.60;6.90;;;;;;;32.58;38.83;94465.75;5077976;28;20806;-81
2023/08/28 08:00:59;;;;;;;11.83;7.30;;;;;;;32.65;37.73;94466.25;5080515;28;20496;-80
2023/08/28 08:03:26;;;;;;;12.20;7.07;;;;;;;32.84;38.11;94468.41;5077103;28;20923;-80
2023/08/28 08:05:54;;;;;;;8.40;6.60;;;;;;;32.87;37.84;94467.84;5076227;28;20437;-81
2023/08/28 08:08:20;;;;;;;9.57;7.03;;;;;;;32.98;37.35;94457.75;5076435;28;20437;-81
2023/08/28 08:10:49;;;;;;;9.73;7.33;;;;;;;33.08;36.77;94465.84;5076427;28;20807;-80
2023/08/28 08:13:17;;;;;;;8.50;6.90;;;;;;;33.14;36.74;94473.69;5075988;28;20445;-81
2023/08/28 08:15:45;;;;;;;9.10;8.13;;;;;;;33.31;35.94;94467.06;5075613;28;20476;-80
2023/08/28 08:18:12;;;;;;;7.30;6.60;;;;;;;33.46;35.62;94466.97;5075650;28;20444;-80
2023/08/28 08:20:39;;;;;;;9.60;7.07;;;;;;;33.60;36.06;94461.72;5076055;28;20436;-80
2023/08/28 08:23:06;;;;;;;12.93;7.53;;;;;;;33.74;35.11;94460.75;5076390;28;20444;-79
2023/08/28 08:25:33;;;;;;;8.70;7.10;;;;;;;33.75;35.41;94456.13;5075767;28;21044;-80
2023/08/28 08:28:02;;;;;;;8.30;7.00;;;;;;;33.58;35.59;94456.56;5076044;28;20441;-80
2023/08/28 08:30:29;;;;;;;7.80;6.73;;;;;;;33.65;33.73;94459.75;5075694;28;20922;-81
2023/08/28 08:32:57;;;;;;;9.40;7.00;;;;;;;33.73;34.42;94456.41;5075439;28;20436;-81
2023/08/28 08:35:24;;;;;;;9.97;8.00;;;;;;;33.72;35.20;94452.06;5075653;28;20437;-81
2023/08/28 08:37:53;;;;;;;13.77;6.63;;;;;;;33.67;33.78;94459.47;5075667;28;20871;-80
2023/08/28 08:40:24;;;;;;;8.03;7.17;;;;;;;33.73;34.41;94444.72;5075178;28;20521;-81
2023/08/28 08:42:51;;;;;;;9.03;8.13;;;;;;;33.77;34.19;94443.84;5075253;28;20512;-79
2023/08/28 08:45:18;;;;;;;7.60;6.90;;;;;;;33.95;34.57;94441.56;5075010;28;20444;-79
2023/08/28 08:47:48;;;;;;;11.63;7.40;;;;;;;34.11;34.98;94432.13;5075341;28;20444;-80
2023/08/28 08:50:19;;;;;;;14.00;6.90;;;;;;;34.03;33.79;94427.31;5057454;28;20437;-80
2023/08/28 08:52:48;;;;;;;8.00;7.30;;;;;;;33.61;33.97;94439.66;5076525;28;20445;-79
2023/08/28 08:55:25;;;;;;;7.93;7.07;;;;;;;33.35;33.58;94438.22;5074921;28;20498;-80
2023/08/28 08:57:55;;;;;;;11.33;7.27;;;;;;;33.47;35.00;94427.78;5075073;28;20565;-80
2023/08/28 09:00:23;;;;;;;9.20;6.90;;;;;;;33.65;35.76;94426.28;5075230;28;20878;-80
2023/08/28 09:02:52;;;;;;;10.87;7.03;;;;;;;33.62;34.92;94424.94;5075353;28;20484;-79
2023/08/28 09:05:21;;;;;;;7.23;6.10;;;;;;;33.85;35.01;94424.22;5056381;28;20875;-80
2023/08/28 09:07:48;;;;;;;7.07;6.40;;;;;;;34.01;34.29;94422.16;5074819;28;20440;-80
2023/08/28 09:10:15;;;;;;;13.50;7.33;;;;;;;34.12;33.07;94411.97;5074422;28;20491;-78
2023/08/28 09:12:42;;;;;;;7.70;7.00;;;;;;;34.16;33.33;94413.03;5074692;28;20437;-80
2023/08/28 09:15:11;;;;;;;9.97;7.10;;;;;;;34.12;33.05;94410.06;5074592;28;20457;-80
2023/08/28 09:17:39;;;;;;;12.93;6.33;;;;;;;34.18;33.70;94405.38;5074955;28;20437;-80
2023/08/28 09:20:13;;;;;;;8.17;7.20;;;;;;;34.15;32.98;94397.78;5055803;28;20506;-80
2023/08/28 09:22:46;;;;;;;8.93;6.07;;;;;;;34.22;32.81;94406.41;5056056;28;20485;-79
2023/08/28 09:25:13;;;;;;;8.70;6.00;;;;;;;34.31;33.45;94393.75;5074535;28;20479;-84
2023/08/28 09:27:42;;;;;;;8.27;7.05;;;;;;;34.39;32.54;94398.59;5073897;28;20445;-82
2023/08/28 09:30:10;;;;;;;7.77;6.93;;;;;;;34.23;32.58;94388.16;5075295;28;20206;-81
2023/08/28 09:32:37;;;;;;;10.17;7.13;;;;;;;34.14;32.89;94380.63;5075482;28;20447;-81
2023/08/28 09:35:08;;;;;;;6.10;5.57;;;;;;;34.18;32.88;94383.59;5074594;28;20441;-83
2023/08/28 09:37:35;;;;;;;6.90;6.20;;;;;;;34.09;32.84;94374.41;5074945;28;20437;-82
2023/08/28 09:40:04;;;;;;;9.13;6.73;;;;;;;33.56;32.96;94368.94;5055554;28;20441;-81
2023/08/28 09:42:32;;;;;;;9.13;6.40;;;;;;;33.46;34.05;94371.75;5074418;28;20488;-81
2023/08/28 09:44:59;;;;;;;7.60;5.97;;;;;;;33.50;33.57;94364.63;5074031;28;20440;-80
2023/08/28 09:47:29;;;;;;;17.80;6.30;;;;;;;33.45;33.37;94356.50;5055426;28;20440;-80
2023/08/28 09:49:58;;;;;;;7.90;6.27;;;;;;;33.48;33.39;94361.38;5073074;28;20448;-80
2023/08/28 09:52:25;;;;;;;10.23;7.00;;;;;;;33.54;32.51;94358.34;5073469;28;20441;-80
2023/08/28 09:55:04;;;;;;;6.77;5.80;;;;;;;33.57;32.81;94351.53;5074250;28;20441;-80
2023/08/28 09:57:31;;;;;;;16.87;6.13;;;;;;;33.64;33.53;94353.91;5055567;28;20528;-80
2023/08/28 09:59:58;;;;;;;6.23;5.67;;;;;;;33.42;32.82;94343.47;5055201;28;20445;-81
2023/08/28 10:02:27;;;;;;;5.93;5.30;;;;;;;33.48;32.90;94340.41;5055100;28;20477;-79
2023/08/28 10:04:54;;;;;;;7.10;6.40;;;;;;;33.41;32.70;94339.13;5073573;28;20441;-81
2023/08/28 10:07:24;;;;;;;7.70;7.00;;;;;;;33.24;32.23;94336.78;5072929;28;20838;-80
2023/08/28 10:09:53;;;;;;;7.67;6.00;;;;;;;33.21;32.09;94338.19;5055017;28;20822;-80
2023/08/28 10:12:23;;;;;;;8.10;5.60;;;;;;;33.39;31.95;94327.72;5054702;28;20441;-79
2023/08/28 10:14:53;;;;;;;10.00;6.17;;;;;;;33.47;33.55;94324.38;5073323;28;20539;-80
2023/08/28 10:17:21;;;;;;;7.07;5.80;;;;;;;33.55;31.50;94321.06;5073639;28;20479;-80
2023/08/28 10:19:58;;;;;;;6.00;5.30;;;;;;;33.23;34.19;94319.66;5054934;28;20449;-80
2023/08/28 10:22:25;;;;;;;6.27;5.60;;;;;;;32.85;33.04;94315.09;5072715;28;20484;-79
2023/08/28 10:24:56;;;;;;;6.30;5.00;;;;;;;33.08;32.54;94316.28;5073141;28;20445;-79
2023/08/28 10:27:24;;;;;;;8.13;5.23;;;;;;;33.14;31.97;94306.97;5073048;28;20479;-80
2023/08/28 10:29:53;;;;;;;6.47;5.40;;;;;;;33.24;31.79;94304.97;5073041;28;20452;-80
2023/08/28 10:32:21;;;;;;;8.23;4.97;;;;;;;33.32;31.81;94298.16;5073331;28;20857;-79
2023/08/28 10:34:52;;;;;;;5.90;5.40;;;;;;;33.18;31.72;94297.16;5054508;28;20445;-80
2023/08/28 10:37:19;;;;;;;15.20;5.17;;;;;;;33.06;31.93;94296.72;5073306;28;20445;-79
2023/08/28 10:39:46;;;;;;;5.60;5.00;;;;;;;33.16;32.80;94286.56;5073385;28;20444;-79
2023/08/28 10:42:17;;;;;;;8.47;5.47;;;;;;;33.30;32.28;94280.47;5072480;28;20509;-80
2023/08/28 10:44:47;;;;;;;11.90;5.50;;;;;;;33.39;32.57;94278.78;5072569;28;20802;-80
2023/08/28 10:47:15;;;;;;;5.40;5.00;;;;;;;33.50;33.17;94285.72;5072610;28;20445;-79
2023/08/28 10:49:42;;;;;;;7.33;5.77;;;;;;;33.45;32.21;94275.69;5072887;28;20449;-80
2023/08/28 10:52:10;;;;;;;7.13;5.70;;;;;;;33.53;32.18;94279.69;5073041;28;20441;-80
2023/08/28 10:54:38;;;;;;;6.23;5.57;;;;;;;33.32;31.87;94273.66;5072577;28;20441;-79
2023/08/28 10:57:10;;;;;;;6.70;6.00;;;;;;;33.46;32.91;94262.91;5073194;28;20455;-80
2023/08/28 10:59:43;;;;;;;6.53;5.00;;;;;;;33.54;32.06;94265.00;5072449;28;20931;-78
2023/08/28 11:02:12;;;;;;;12.60;6.10;;;;;;;33.64;31.81;94264.09;5072783;28;20546;-79
2023/08/28 11:04:40;;;;;;;5.90;5.30;;;;;;;33.48;32.12;94260.72;5073325;28;20452;-80
2023/08/28 11:07:43;;;;;;;5.93;5.00;;;;;;;33.40;33.33;94264.06;5053858;28;20424;-80
2023/08/28 11:10:19;;;;;;;6.10;5.60;;;;;;;32.79;32.93;94251.00;5072490;28;20475;-79
2023/08/28 11:12:56;;;;;;;7.27;5.10;;;;;;;33.14;35.67;94261.56;5073233;28;20449;-80
2023/08/28 11:15:31;;;;;;;4.97;4.40;;;;;;;32.89;34.15;94256.34;5072127;28;20483;-80
2023/08/28 11:18:28;;;;;;;7.03;4.50;;;;;;;32.77;33.72;94240.38;5072550;28;20436;-80
2023/08/28 11:20:56;;;;;;;9.87;4.80;;;;;;;32.91;32.59;94246.00;5072825;28;20523;-80
2023/08/28 11:23:24;;;;;;;7.40;5.33;;;;;;;33.10;33.11;94230.59;5072865;28;20507;-80
2023/08/28 11:25:52;;;;;;;8.90;4.50;;;;;;;33.34;32.82;94227.94;5072684;28;20444;-79
2023/08/28 11:28:32;;;;;;;4.23;3.93;;;;;;;33.55;30.96;94228.53;5050811;28;20434;-80
2023/08/28 11:31:01;;;;;;;5.00;4.30;;;;;;;33.61;31.39;94218.41;5053081;28;20940;-80
2023/08/28 11:33:36;;;;;;;5.30;4.00;;;;;;;33.47;30.83;94210.94;5055173;28;20495;-80
2023/08/28 11:36:03;;;;;;;8.53;3.90;;;;;;;33.41;30.55;94208.56;5021490;28;20445;-80